Time;durP1;ratioP1;P1;durP2;ratioP2;P2;SDS_P1;SDS_P2;PMS_P1;PMS_P2;Temp;Humidity;BMP_temperature;BMP_pressure;BME280_temperature;BME280_humidity;BME280_pressure;Samples;Min_cycle;Max_cycle;Signal;HPM_P1;HPM_P2
2022/08/17 00:00:16;;;;;;;0.80;0.80;;;21.70;99.90;;;;;;5030078;28;20182;-81
2022/08/17 00:03:22;;;;;;;0.63;0.63;;;21.70;99.90;;;;;;5027436;28;20213;-80
2022/08/17 00:05:52;;;;;;;0.80;0.80;;;21.80;99.90;;;;;;4986294;28;20207;-80
2022/08/17 00:08:24;;;;;;;0.73;0.70;;;21.80;99.90;;;;;;5021725;28;20219;-80
2022/08/17 00:10:51;;;;;;;0.90;0.80;;;21.60;99.90;;;;;;5037841;28;20178;-81
2022/08/17 00:13:24;;;;;;;0.40;0.40;;;21.50;99.90;;;;;;5030579;28;20182;-81
2022/08/17 00:15:51;;;;;;;0.80;0.80;;;21.50;99.90;;;;;;5038973;28;20232;-80
2022/08/17 00:18:17;;;;;;;0.70;0.70;;;21.50;99.90;;;;;;5037739;28;20182;-80
2022/08/17 00:20:43;;;;;;;1.33;0.80;;;21.50;99.90;;;;;;5038380;28;20576;-81
2022/08/17 00:23:12;;;;;;;0.60;0.60;;;21.50;99.90;;;;;;5028030;28;20266;-80
2022/08/17 00:25:44;;;;;;;1.00;0.80;;;21.60;99.90;;;;;;5034367;28;20206;-81
2022/08/17 00:28:11;;;;;;;0.53;0.53;;;21.60;99.90;;;;;;5032443;28;20195;-81
2022/08/17 00:30:37;;;;;;;0.70;0.70;;;21.70;99.90;;;;;;5026678;28;20686;-81
2022/08/17 00:33:12;;;;;;;0.90;0.90;;;21.60;99.90;;;;;;5033482;28;20179;-81
2022/08/17 00:35:38;;;;;;;0.30;0.30;;;21.60;99.90;;;;;;5032474;28;20282;-81
2022/08/17 00:38:08;;;;;;;0.30;0.30;;;21.60;99.90;;;;;;5034510;28;20191;-81
2022/08/17 00:40:36;;;;;;;0.70;0.50;;;21.70;99.90;;;;;;5022804;28;20170;-81
2022/08/17 00:43:32;;;;;;;0.43;0.40;;;21.70;99.90;;;;;;5027908;28;20166;-80
2022/08/17 00:46:01;;;;;;;0.57;0.57;;;21.80;99.90;;;;;;5032943;28;20731;-81
2022/08/17 00:48:28;;;;;;;0.53;0.47;;;21.90;99.90;;;;;;5021429;28;20201;-81
2022/08/17 00:51:20;;;;;;;0.47;0.47;;;21.60;99.90;;;;;;5025977;28;20178;-81
2022/08/17 00:54:17;;;;;;;0.50;0.50;;;21.50;99.90;;;;;;5020247;28;20218;-81
2022/08/17 00:56:50;;;;;;;0.57;0.57;;;21.30;99.90;;;;;;5023310;28;20587;-81
2022/08/17 00:59:20;;;;;;;0.40;0.40;;;21.30;99.90;;;;;;5027691;28;20182;-80
2022/08/17 01:01:48;;;;;;;1.03;0.90;;;21.20;99.90;;;;;;5032124;28;20189;-81
2022/08/17 01:04:16;;;;;;;0.70;0.70;;;21.10;99.90;;;;;;5028642;28;20187;-81
2022/08/17 01:06:44;;;;;;;0.77;0.77;;;21.00;99.90;;;;;;5031201;28;20608;-81
2022/08/17 01:09:09;;;;;;;0.77;0.77;;;20.80;99.90;;;;;;5025650;28;20190;-80
2022/08/17 01:11:38;;;;;;;0.70;0.70;;;20.70;99.90;;;;;;5030487;28;20190;-81
2022/08/17 01:14:04;;;;;;;1.20;0.90;;;20.60;99.90;;;;;;5026396;28;20178;-80
2022/08/17 01:16:31;;;;;;;0.77;0.60;;;20.70;99.90;;;;;;5028779;28;20233;-81
2022/08/17 01:19:03;;;;;;;0.93;0.70;;;20.90;99.90;;;;;;5025379;28;20174;-81
2022/08/17 01:22:10;;;;;;;0.43;0.43;;;21.10;99.90;;;;;;5027586;28;20178;-80
2022/08/17 01:24:50;;;;;;;0.40;0.40;;;21.30;99.90;;;;;;5034583;28;20252;-80
2022/08/17 01:27:17;;;;;;;0.70;0.70;;;21.40;99.90;;;;;;5029238;28;20181;-80
2022/08/17 01:29:47;;;;;;;0.40;0.40;;;21.50;99.90;;;;;;5028007;28;21126;-80
2022/08/17 01:32:13;;;;;;;0.37;0.37;;;21.60;99.90;;;;;;5027274;28;20189;-81
2022/08/17 01:34:39;;;;;;;0.20;0.20;;;21.60;99.90;;;;;;5028956;28;20215;-80
2022/08/17 01:37:05;;;;;;;0.53;0.53;;;21.40;99.90;;;;;;5033850;28;20185;-80
2022/08/17 01:40:02;;;;;;;0.60;0.60;;;21.50;99.90;;;;;;5025774;28;20182;-80
2022/08/17 01:42:53;;;;;;;0.40;0.40;;;21.60;99.90;;;;;;5003769;28;20741;-80
2022/08/17 01:45:24;;;;;;;0.50;0.50;;;21.70;99.90;;;;;;5026496;28;20214;-81
2022/08/17 01:47:51;;;;;;;0.77;0.77;;;21.70;99.90;;;;;;5033207;28;20244;-81
2022/08/17 01:50:29;;;;;;;0.50;0.50;;;21.40;99.90;;;;;;5029977;28;20556;-81
2022/08/17 01:53:00;;;;;;;0.53;0.53;;;21.10;99.90;;;;;;5028220;28;20232;-80
2022/08/17 01:55:32;;;;;;;0.67;0.67;;;21.00;99.90;;;;;;5030289;28;20217;-80
2022/08/17 01:57:57;;;;;;;0.60;0.60;;;20.90;99.90;;;;;;5037207;28;20641;-81
2022/08/17 02:00:23;;;;;;;1.70;1.60;;;20.80;99.90;;;;;;5031466;28;20181;-81
2022/08/17 02:02:49;;;;;;;0.43;0.40;;;21.00;99.90;;;;;;5025074;28;20183;-80
2022/08/17 02:05:14;;;;;;;0.50;0.50;;;21.00;99.90;;;;;;5034169;28;20201;-80
2022/08/17 02:07:40;;;;;;;0.43;0.43;;;21.20;99.90;;;;;;5032745;28;20182;-80
2022/08/17 02:10:07;;;;;;;1.03;0.70;;;21.40;99.90;;;;;;5032138;28;20738;-80
2022/08/17 02:12:36;;;;;;;0.40;0.40;;;21.50;99.90;;;;;;5031489;28;20248;-80
2022/08/17 02:15:08;;;;;;;0.70;0.70;;;21.60;99.90;;;;;;5030609;28;20309;-80
2022/08/17 02:17:34;;;;;;;0.70;0.53;;;21.50;99.90;;;;;;5035915;28;20669;-81
2022/08/17 02:19:59;;;;;;;0.33;0.33;;;21.20;99.90;;;;;;5032950;28;20269;-80
2022/08/17 02:22:26;;;;;;;0.73;0.73;;;21.40;99.90;;;;;;5028997;28;20187;-80
2022/08/17 02:24:52;;;;;;;1.13;0.80;;;21.30;99.90;;;;;;5031061;28;20182;-80
2022/08/17 02:27:18;;;;;;;0.60;0.60;;;21.40;99.90;;;;;;5031590;28;20183;-81
2022/08/17 02:29:44;;;;;;;1.23;0.70;;;21.20;99.90;;;;;;5027837;28;20640;-80
2022/08/17 02:32:20;;;;;;;0.57;0.57;;;21.30;99.90;;;;;;5028022;28;20200;-80
2022/08/17 02:34:46;;;;;;;0.53;0.47;;;21.00;99.90;;;;;;5022002;28;20218;-80
2022/08/17 02:37:12;;;;;;;0.50;0.50;;;20.80;99.90;;;;;;5031243;28;20191;-80
2022/08/17 02:39:37;;;;;;;0.67;0.67;;;20.60;99.90;;;;;;5025102;28;20187;-80
2022/08/17 02:42:04;;;;;;;0.43;0.40;;;20.70;99.90;;;;;;5034676;28;20189;-81
2022/08/17 02:44:30;;;;;;;0.47;0.47;;;20.70;99.90;;;;;;5032173;28;20183;-80
2022/08/17 02:46:55;;;;;;;0.47;0.47;;;20.70;99.90;;;;;;5037354;28;20573;-80
2022/08/17 02:49:21;;;;;;;0.40;0.40;;;21.00;99.90;;;;;;5035841;28;20201;-80
2022/08/17 02:51:48;;;;;;;0.20;0.20;;;21.00;99.90;;;;;;5042995;28;20177;-80
2022/08/17 02:54:14;;;;;;;0.47;0.47;;;21.00;99.90;;;;;;5025403;28;20190;-80
2022/08/17 02:56:40;;;;;;;1.00;0.50;;;21.00;99.90;;;;;;5032927;28;20194;-80
2022/08/17 02:59:05;;;;;;;0.50;0.50;;;21.10;99.90;;;;;;5030672;28;20182;-80
2022/08/17 03:01:31;;;;;;;0.50;0.50;;;21.10;99.90;;;;;;5046106;28;20213;-80
2022/08/17 03:03:56;;;;;;;0.60;0.50;;;21.00;99.90;;;;;;5029509;28;20194;-80
2022/08/17 03:06:22;;;;;;;1.10;0.57;;;21.00;99.90;;;;;;5029935;28;20206;-80
2022/08/17 03:08:48;;;;;;;0.70;0.70;;;21.10;99.90;;;;;;5032880;28;20198;-81
2022/08/17 03:11:13;;;;;;;0.67;0.60;;;21.20;99.90;;;;;;5035734;28;20648;-81
2022/08/17 03:13:39;;;;;;;0.30;0.30;;;21.20;99.90;;;;;;5037612;28;20181;-80
2022/08/17 03:16:05;;;;;;;0.40;0.30;;;21.20;99.90;;;;;;5036437;28;20222;-80
2022/08/17 03:18:30;;;;;;;0.43;0.43;;;21.10;99.90;;;;;;5028584;28;20288;-80
2022/08/17 03:21:02;;;;;;;0.50;0.40;;;21.10;99.90;;;;;;5035037;28;20194;-80
2022/08/17 03:23:28;;;;;;;0.63;0.63;;;21.10;99.90;;;;;;5033096;28;20181;-80
2022/08/17 03:25:54;;;;;;;0.50;0.50;;;21.10;99.90;;;;;;5037123;28;20202;-81
2022/08/17 03:28:21;;;;;;;1.47;0.50;;;21.10;99.90;;;;;;5031608;28;20182;-80
2022/08/17 03:30:47;;;;;;;0.30;0.30;;;21.00;99.90;;;;;;5037624;28;20232;-80
2022/08/17 03:33:13;;;;;;;0.40;0.40;;;20.90;99.90;;;;;;5025799;28;20174;-80
2022/08/17 03:35:39;;;;;;;0.63;0.40;;;20.80;99.90;;;;;;5032232;28;20248;-80
2022/08/17 03:38:06;;;;;;;0.87;0.57;;;20.80;99.90;;;;;;5035273;28;20596;-80
2022/08/17 03:40:32;;;;;;;3.93;0.80;;;20.90;99.90;;;;;;5040502;28;20243;-80
2022/08/17 03:43:04;;;;;;;0.57;0.57;;;21.00;99.90;;;;;;5031205;28;20178;-80
2022/08/17 03:56:41;;;;;;;0.73;0.73;;;21.00;99.90;;;;;;5034029;28;20220;-80
2022/08/17 03:59:07;;;;;;;0.43;0.43;;;20.90;99.90;;;;;;5032059;28;20252;-80
2022/08/17 04:01:32;;;;;;;0.40;0.40;;;20.80;99.90;;;;;;5030170;28;20178;-80
2022/08/17 04:03:58;;;;;;;0.40;0.40;;;20.80;99.90;;;;;;5015640;28;20174;-80
2022/08/17 04:06:23;;;;;;;0.57;0.40;;;20.70;99.90;;;;;;5023483;28;20243;-80
2022/08/17 04:08:49;;;;;;;0.40;0.40;;;20.60;99.90;;;;;;5026659;28;20178;-80
2022/08/17 04:11:14;;;;;;;3.23;0.57;;;20.60;99.90;;;;;;5030768;28;20174;-80
2022/08/17 04:13:40;;;;;;;0.50;0.50;;;20.50;99.90;;;;;;5028698;28;20179;-80
2022/08/17 04:16:06;;;;;;;0.93;0.93;;;20.50;99.90;;;;;;5038023;28;20208;-80
2022/08/17 04:18:31;;;;;;;0.60;0.60;;;20.50;99.90;;;;;;5041382;28;20174;-80
2022/08/17 04:20:57;;;;;;;0.63;0.63;;;20.40;99.90;;;;;;5036103;28;20227;-80
2022/08/17 04:23:23;;;;;;;0.57;0.57;;;20.50;99.90;;;;;;5030314;28;20651;-80
2022/08/17 04:25:50;;;;;;;0.23;0.23;;;20.50;99.90;;;;;;5036781;28;20198;-80
2022/08/17 04:28:17;;;;;;;0.60;0.60;;;20.40;99.90;;;;;;5020344;28;20924;-80
2022/08/17 04:30:44;;;;;;;0.30;0.30;;;20.70;99.90;;;;;;5026271;28;20182;-80
2022/08/17 04:33:19;;;;;;;0.30;0.30;;;20.90;99.90;;;;;;5033568;28;20200;-80
2022/08/17 04:35:48;;;;;;;0.60;0.60;;;21.00;99.90;;;;;;5032228;28;20224;-80
2022/08/17 04:38:19;;;;;;;0.60;0.50;;;21.20;99.90;;;;;;5030227;28;20179;-80
2022/08/17 04:43:32;;;;;;;0.80;0.80;;;21.50;99.90;;;;;;5026600;28;20181;-81
2022/08/17 04:46:04;;;;;;;0.70;0.70;;;21.60;99.90;;;;;;5029013;28;20289;-80
2022/08/17 04:48:33;;;;;;;0.60;0.60;;;21.60;99.90;;;;;;5025096;28;20260;-80
2022/08/17 04:50:59;;;;;;;0.50;0.50;;;21.50;99.90;;;;;;5029046;28;20182;-80
2022/08/17 04:53:25;;;;;;;1.33;0.77;;;21.60;99.90;;;;;;5022806;28;20240;-80
2022/08/17 04:55:52;;;;;;;0.87;0.80;;;21.50;99.90;;;;;;5026408;28;20217;-80
2022/08/17 04:58:18;;;;;;;0.80;0.80;;;21.50;99.90;;;;;;5024071;28;20705;-80
2022/08/17 05:00:44;;;;;;;0.73;0.73;;;21.40;99.90;;;;;;5024671;28;20588;-80
2022/08/17 05:03:10;;;;;;;1.73;1.33;;;21.60;99.90;;;;;;5029249;28;20615;-80
2022/08/17 05:05:38;;;;;;;0.63;0.63;;;21.50;99.90;;;;;;5031291;28;20213;-80
2022/08/17 05:08:05;;;;;;;1.70;1.60;;;21.60;99.90;;;;;;5026812;28;20193;-80
2022/08/17 05:10:34;;;;;;;0.83;0.83;;;21.60;99.90;;;;;;5029315;28;20182;-80
2022/08/17 05:13:07;;;;;;;2.23;1.23;;;21.70;99.90;;;;;;5021643;28;20216;-82
2022/08/17 05:15:35;;;;;;;1.10;1.00;;;21.70;99.90;;;;;;5029761;28;20237;-82
2022/08/17 05:18:00;;;;;;;0.70;0.70;;;21.70;99.90;;;;;;5029393;28;20174;-82
2022/08/17 05:20:27;;;;;;;0.30;0.30;;;21.70;99.90;;;;;;5029133;28;20189;-82
2022/08/17 05:22:56;;;;;;;0.77;0.70;;;21.70;99.90;;;;;;5025610;28;20179;-81
2022/08/17 05:25:26;;;;;;;0.73;0.73;;;21.90;99.90;;;;;;5025515;28;20236;-79
2022/08/17 05:27:52;;;;;;;2.10;1.17;;;21.90;99.90;;;;;;5021347;28;20225;-79
2022/08/17 05:30:18;;;;;;;1.20;1.10;;;22.00;99.90;;;;;;5023407;28;20221;-79
2022/08/17 05:33:00;;;;;;;0.97;0.93;;;22.00;99.90;;;;;;5024569;28;20210;-81
2022/08/17 05:35:28;;;;;;;1.13;0.90;;;22.10;99.90;;;;;;5024398;28;20269;-79
2022/08/17 05:37:54;;;;;;;1.10;1.10;;;22.00;99.90;;;;;;5026630;28;20181;-79
2022/08/17 05:40:20;;;;;;;1.27;1.17;;;21.80;99.90;;;;;;5031335;28;20257;-79
2022/08/17 05:42:47;;;;;;;1.23;1.13;;;21.70;99.90;;;;;;5033216;28;20179;-80
2022/08/17 05:45:14;;;;;;;1.00;0.80;;;21.60;99.90;;;;;;5035262;28;20590;-80
2022/08/17 05:47:43;;;;;;;1.13;0.70;;;21.70;99.90;;;;;;5028139;28;20186;-80
2022/08/17 05:50:13;;;;;;;1.00;1.00;;;21.70;99.90;;;;;;5032580;28;20229;-80
2022/08/17 05:52:49;;;;;;;0.70;0.70;;;21.80;99.90;;;;;;5023722;28;20208;-81
2022/08/17 05:55:38;;;;;;;2.27;0.90;;;21.90;99.90;;;;;;5033824;28;20243;-80
2022/08/17 05:58:36;;;;;;;0.60;0.60;;;22.00;99.90;;;;;;5035143;28;20177;-80
2022/08/17 06:01:06;;;;;;;1.00;0.90;;;22.20;99.90;;;;;;5014032;28;20199;-80
2022/08/17 06:03:39;;;;;;;0.40;0.40;;;22.30;99.90;;;;;;5034800;28;20185;-80
2022/08/17 06:06:24;;;;;;;1.53;1.43;;;22.40;99.90;;;;;;5029197;28;20202;-80
2022/08/17 06:09:16;;;;;;;1.77;0.63;;;22.40;99.90;;;;;;5044452;28;20182;-80
2022/08/17 06:11:50;;;;;;;0.87;0.87;;;22.40;99.90;;;;;;5023855;28;20229;-81
2022/08/17 06:14:54;;;;;;;1.03;0.90;;;22.50;99.90;;;;;;5034304;28;20639;-80
2022/08/17 06:17:23;;;;;;;0.73;0.73;;;22.70;99.90;;;;;;5032329;28;20181;-80
2022/08/17 06:20:10;;;;;;;0.60;0.60;;;22.70;99.90;;;;;;5044021;28;20265;-81
2022/08/17 06:22:47;;;;;;;0.80;0.70;;;22.90;99.90;;;;;;5051469;28;20182;-81
2022/08/17 06:25:27;;;;;;;0.70;0.70;;;23.10;99.90;;;;;;5043394;28;20206;-81
2022/08/17 06:27:58;;;;;;;0.47;0.43;;;23.20;99.90;;;;;;5043337;28;20639;-81
2022/08/17 06:30:27;;;;;;;1.90;0.73;;;23.40;99.90;;;;;;5037818;28;20197;-81
2022/08/17 06:32:58;;;;;;;0.53;0.53;;;23.50;99.90;;;;;;5046269;28;20272;-82
2022/08/17 06:35:32;;;;;;;0.97;0.77;;;23.60;99.90;;;;;;5030594;28;20217;-80
2022/08/17 06:38:16;;;;;;;0.83;0.70;;;23.80;99.90;;;;;;5038850;28;20251;-80
2022/08/17 06:41:09;;;;;;;1.30;0.93;;;23.90;99.90;;;;;;5052116;28;20185;-80
2022/08/17 06:43:55;;;;;;;0.63;0.57;;;24.00;99.90;;;;;;5044756;28;20215;-81
2022/08/17 06:46:47;;;;;;;1.40;1.00;;;24.00;99.90;;;;;;5048350;28;20193;-80
2022/08/17 06:49:38;;;;;;;0.50;0.50;;;24.00;99.90;;;;;;5045887;28;20202;-80
2022/08/17 06:52:16;;;;;;;1.00;0.90;;;24.00;99.90;;;;;;5048960;28;20632;-81
2022/08/17 06:54:51;;;;;;;1.47;1.37;;;23.90;99.90;;;;;;5048178;28;20210;-80
2022/08/17 06:57:29;;;;;;;1.10;0.70;;;23.80;99.90;;;;;;5049486;28;20174;-79
2022/08/17 07:00:07;;;;;;;0.80;0.80;;;23.80;99.90;;;;;;5043572;28;20170;-80
2022/08/17 07:03:19;;;;;;;0.70;0.70;;;23.40;99.90;;;;;;5045792;28;20182;-79
2022/08/17 07:05:56;;;;;;;1.77;1.40;;;23.20;99.90;;;;;;5027296;28;20680;-78
2022/08/17 07:08:32;;;;;;;0.67;0.67;;;23.00;99.90;;;;;;5030283;28;20182;-79
2022/08/17 07:11:03;;;;;;;0.60;0.60;;;23.00;99.90;;;;;;5026512;28;20178;-79
2022/08/17 07:13:45;;;;;;;0.73;0.60;;;23.30;99.90;;;;;;5031575;28;20228;-79
2022/08/17 07:16:26;;;;;;;0.70;0.70;;;23.50;99.90;;;;;;5032853;28;20298;-79
2022/08/17 07:18:54;;;;;;;1.27;1.23;;;23.30;99.90;;;;;;5037538;28;20178;-79
2022/08/17 07:21:41;;;;;;;1.00;0.93;;;22.90;99.90;;;;;;5033641;28;20202;-79
2022/08/17 07:24:31;;;;;;;0.67;0.67;;;22.90;99.90;;;;;;5032214;28;20182;-79
2022/08/17 07:27:15;;;;;;;0.63;0.60;;;22.90;99.90;;;;;;5026662;28;20289;-79
2022/08/17 07:29:46;;;;;;;0.60;0.60;;;22.70;99.90;;;;;;5035084;28;20610;-79
2022/08/17 07:32:17;;;;;;;2.20;1.50;;;22.70;99.90;;;;;;5034257;28;20222;-79
2022/08/17 07:35:09;;;;;;;0.60;0.60;;;22.80;99.90;;;;;;5026683;28;20673;-80
2022/08/17 07:37:44;;;;;;;1.00;0.87;;;22.80;99.90;;;;;;5022798;28;20183;-80
2022/08/17 07:40:18;;;;;;;0.53;0.53;;;22.90;99.90;;;;;;5022991;28;20181;-80
2022/08/17 07:43:01;;;;;;;1.10;1.00;;;23.20;99.90;;;;;;5026352;28;20174;-80
2022/08/17 07:48:21;;;;;;;1.60;1.50;;;23.60;99.90;;;;;;5029275;28;20202;-80
2022/08/17 07:50:48;;;;;;;0.63;0.60;;;23.70;99.90;;;;;;5031454;28;20177;-80
2022/08/17 07:53:17;;;;;;;1.87;1.37;;;23.80;99.90;;;;;;5030479;28;20182;-80
2022/08/17 07:55:44;;;;;;;0.63;0.63;;;23.90;99.90;;;;;;5031055;28;20229;-79
2022/08/17 07:58:20;;;;;;;1.50;0.90;;;23.80;99.90;;;;;;5033270;28;20340;-80
2022/08/17 08:01:03;;;;;;;1.57;1.17;;;23.60;99.90;;;;;;5031357;28;20185;-80
2022/08/17 08:03:30;;;;;;;0.50;0.50;;;23.00;99.90;;;;;;5037107;28;21085;-80
2022/08/17 08:06:00;;;;;;;0.80;0.80;;;22.70;99.90;;;;;;5030020;28;20220;-80
2022/08/17 08:08:36;;;;;;;1.20;1.10;;;22.40;99.90;;;;;;5022080;28;20221;-80
2022/08/17 08:11:04;;;;;;;0.63;0.63;;;22.30;99.90;;;;;;5029397;28;20547;-80
2022/08/17 08:13:31;;;;;;;1.57;0.77;;;22.30;99.90;;;;;;5034125;28;20659;-80
2022/08/17 08:16:25;;;;;;;0.97;0.97;;;22.10;99.90;;;;;;5032101;28;21237;-79
2022/08/17 08:18:57;;;;;;;0.70;0.70;;;22.30;99.90;;;;;;5032279;28;20178;-79
2022/08/17 08:21:45;;;;;;;0.80;0.80;;;22.70;99.90;;;;;;5035686;28;20171;-79
2022/08/17 08:24:39;;;;;;;0.70;0.70;;;23.10;99.90;;;;;;5036080;28;20181;-79
2022/08/17 08:27:26;;;;;;;0.57;0.57;;;23.20;99.90;;;;;;5029434;28;20206;-79
2022/08/17 08:30:08;;;;;;;0.87;0.87;;;23.60;99.90;;;;;;5032225;28;20190;-79
2022/08/17 08:33:03;;;;;;;0.87;0.87;;;23.90;99.90;;;;;;5032230;28;20196;-79
2022/08/17 08:35:55;;;;;;;0.63;0.63;;;24.20;99.90;;;;;;5026957;28;20209;-79
2022/08/17 08:38:41;;;;;;;1.47;1.10;;;24.40;99.90;;;;;;5027199;28;20288;-79
2022/08/17 08:41:15;;;;;;;1.13;1.00;;;24.60;99.90;;;;;;5031173;28;20260;-79
2022/08/17 08:44:06;;;;;;;1.30;1.23;;;24.50;99.90;;;;;;5032925;28;20238;-79
2022/08/17 08:46:34;;;;;;;1.03;0.67;;;24.60;99.90;;;;;;5026060;28;20298;-79
2022/08/17 08:49:27;;;;;;;0.90;0.77;;;24.90;99.90;;;;;;5028616;28;20659;-80
2022/08/17 08:51:59;;;;;;;1.73;1.63;;;25.10;99.90;;;;;;5031635;28;20662;-80
2022/08/17 08:54:30;;;;;;;1.03;0.80;;;25.10;99.90;;;;;;5033909;28;20186;-80
2022/08/17 08:57:18;;;;;;;0.60;0.60;;;25.10;99.90;;;;;;5027068;28;20267;-79
2022/08/17 08:59:50;;;;;;;0.53;0.53;;;25.10;99.90;;;;;;5023614;28;20197;-80
2022/08/17 09:02:44;;;;;;;1.80;1.13;;;24.80;99.90;;;;;;5021187;28;20434;-80
2022/08/17 09:05:18;;;;;;;0.80;0.80;;;24.00;99.90;;;;;;5028287;28;20214;-80
2022/08/17 09:08:14;;;;;;;1.77;1.20;;;23.40;99.90;;;;;;5028735;28;20193;-80
2022/08/17 09:10:59;;;;;;;1.03;1.00;;;22.90;99.90;;;;;;5010354;28;20205;-79
2022/08/17 09:13:44;;;;;;;1.27;1.17;;;22.30;99.90;;;;;;5024316;28;20277;-80
2022/08/17 09:16:28;;;;;;;0.90;0.87;;;22.30;99.90;;;;;;5032587;28;20226;-80
2022/08/17 09:19:01;;;;;;;1.20;1.10;;;22.40;99.90;;;;;;5023563;28;20206;-80
2022/08/17 09:21:40;;;;;;;1.63;1.53;;;22.30;99.90;;;;;;5034726;28;20187;-80
2022/08/17 09:24:12;;;;;;;0.77;0.77;;;22.30;99.90;;;;;;5032091;28;20635;-80
2022/08/17 09:27:00;;;;;;;0.80;0.80;;;22.50;99.90;;;;;;5036635;28;20229;-85
2022/08/17 09:29:33;;;;;;;1.33;1.00;;;22.70;99.90;;;;;;5031768;28;20197;-80
2022/08/17 09:32:12;;;;;;;1.40;1.30;;;23.20;99.90;;;;;;5036163;28;20213;-80
2022/08/17 09:34:51;;;;;;;1.43;1.33;;;23.80;99.90;;;;;;5028302;28;20190;-80
2022/08/17 09:38:02;;;;;;;0.70;0.70;;;24.50;99.90;;;;;;5028148;28;20187;-80
2022/08/17 09:40:45;;;;;;;0.93;0.80;;;24.90;99.90;;;;;;5010335;28;20255;-80
2022/08/17 09:43:40;;;;;;;1.77;1.20;;;25.30;99.90;;;;;;5031169;28;20550;-80
2022/08/17 09:46:37;;;;;;;1.03;0.90;;;25.50;99.90;;;;;;5027233;28;20703;-80
2022/08/17 09:49:10;;;;;;;0.83;0.83;;;25.80;99.90;;;;;;5027806;28;20689;-80
2022/08/17 09:51:47;;;;;;;1.03;0.60;;;26.40;99.90;;;;;;5038439;28;20246;-80
2022/08/17 09:54:29;;;;;;;0.50;0.50;;;26.60;99.90;;;;;;5029910;28;20280;-80
2022/08/17 09:57:30;;;;;;;1.80;0.93;;;26.80;99.90;;;;;;5034553;28;20217;-80
2022/08/17 09:59:59;;;;;;;2.20;0.70;;;26.70;99.90;;;;;;5033480;28;20198;-80
2022/08/17 10:02:58;;;;;;;2.80;1.80;;;26.70;99.90;;;;;;5030722;28;20278;-80
2022/08/17 10:05:38;;;;;;;3.30;1.20;;;26.70;99.90;;;;;;5024801;28;20287;-80
2022/08/17 10:08:21;;;;;;;1.13;1.03;;;26.10;99.90;;;;;;5029666;28;20289;-80
2022/08/17 10:11:04;;;;;;;0.97;0.90;;;25.80;99.90;;;;;;5033442;28;20590;-81
2022/08/17 10:13:42;;;;;;;2.50;1.30;;;25.20;99.90;;;;;;5023550;28;20634;-80
2022/08/17 10:16:23;;;;;;;1.13;0.90;;;25.50;99.90;;;;;;5017228;28;20218;-80
2022/08/17 10:18:57;;;;;;;2.37;2.17;;;26.00;99.90;;;;;;5029607;28;20739;-81
2022/08/17 10:27:10;;;;;;;0.60;0.60;;;26.60;99.90;;;;;;5027954;28;20221;-80
2022/08/17 10:29:44;;;;;;;1.10;1.10;;;26.50;99.90;;;;;;5028944;28;20197;-80
2022/08/17 10:32:15;;;;;;;1.40;0.77;;;26.70;99.90;;;;;;5049651;28;20186;-80
2022/08/17 10:35:13;;;;;;;0.60;0.60;;;26.90;99.90;;;;;;5035222;28;20240;-80
2022/08/17 10:37:58;;;;;;;2.63;1.00;;;27.00;99.90;;;;;;5032183;28;20175;-80
2022/08/17 10:40:48;;;;;;;1.97;1.33;;;26.20;99.90;;;;;;5035886;28;20202;-81
2022/08/17 10:43:32;;;;;;;1.53;1.30;;;26.30;99.90;;;;;;5032728;28;20191;-80
2022/08/17 10:46:13;;;;;;;0.53;0.50;;;26.10;99.90;;;;;;5027045;28;20209;-81
2022/08/17 10:48:41;;;;;;;2.27;1.40;;;25.90;99.90;;;;;;5032828;28;20212;-80
2022/08/17 10:51:33;;;;;;;1.37;0.90;;;26.00;99.90;;;;;;5029387;28;20218;-81
2022/08/17 10:54:01;;;;;;;0.70;0.70;;;26.20;99.90;;;;;;5037459;28;20610;-81
2022/08/17 10:56:49;;;;;;;1.27;1.10;;;26.30;99.90;;;;;;5028257;28;20731;-81
2022/08/17 10:59:33;;;;;;;1.50;1.40;;;25.60;99.90;;;;;;5024008;28;20183;-81
2022/08/17 11:02:02;;;;;;;1.23;1.10;;;25.30;99.90;;;;;;5027780;28;20179;-81
2022/08/17 11:04:44;;;;;;;1.20;1.10;;;25.80;99.90;;;;;;5028629;28;20178;-81
2022/08/17 11:07:39;;;;;;;1.33;0.80;;;26.40;99.90;;;;;;5031708;28;20224;-80
2022/08/17 11:10:43;;;;;;;1.83;1.53;;;26.60;99.90;;;;;;5030002;28;20186;-81
2022/08/17 11:13:36;;;;;;;1.13;0.73;;;26.90;99.90;;;;;;5028897;28;20182;-80
2022/08/17 11:16:24;;;;;;;1.00;0.97;;;27.00;99.90;;;;;;5024126;28;20269;-80
2022/08/17 11:19:21;;;;;;;2.73;1.83;;;26.70;99.90;;;;;;5031355;28;20189;-81
2022/08/17 11:22:05;;;;;;;0.90;0.90;;;26.50;99.90;;;;;;5027057;28;20187;-80
2022/08/17 11:24:37;;;;;;;2.17;1.33;;;27.50;99.90;;;;;;5027138;28;20202;-81
2022/08/17 11:27:28;;;;;;;1.13;1.07;;;27.90;99.90;;;;;;5021965;28;20589;-80
2022/08/17 11:30:09;;;;;;;1.30;1.20;;;28.40;99.90;;;;;;5026412;28;20722;-81
2022/08/17 11:32:50;;;;;;;1.27;1.17;;;27.10;99.90;;;;;;5023326;28;20193;-81
2022/08/17 11:35:21;;;;;;;0.97;0.97;;;27.30;99.90;;;;;;5029526;28;20214;-81
2022/08/17 11:38:04;;;;;;;1.63;1.53;;;28.10;99.90;;;;;;5026138;28;20201;-80
2022/08/17 11:40:51;;;;;;;0.70;0.70;;;28.60;99.90;;;;;;5022832;28;20199;-80
2022/08/17 11:43:40;;;;;;;0.57;0.57;;;29.00;99.90;;;;;;5025856;28;20185;-80
2022/08/17 11:46:24;;;;;;;0.60;0.60;;;28.80;99.90;;;;;;5028161;28;20769;-80
2022/08/17 11:51:58;;;;;;;2.90;1.20;;;29.00;99.90;;;;;;5033804;28;20689;-80
2022/08/17 11:54:31;;;;;;;1.50;0.93;;;29.10;99.90;;;;;;5022034;28;20540;-80
2022/08/17 11:56:59;;;;;;;0.80;0.80;;;29.10;99.90;;;;;;5019522;28;20232;-81
2022/08/17 11:59:31;;;;;;;0.70;0.70;;;29.00;99.90;;;;;;5030351;28;20174;-80
2022/08/17 12:02:16;;;;;;;1.00;1.00;;;28.60;99.90;;;;;;5025023;28;20233;-80
2022/08/17 12:05:26;;;;;;;1.43;1.10;;;27.90;99.90;;;;;;5027390;28;20197;-81
2022/08/17 12:07:54;;;;;;;0.50;0.50;;;27.60;99.90;;;;;;5027199;28;20543;-80
2022/08/17 12:10:30;;;;;;;0.90;0.90;;;27.90;99.90;;;;;;5037148;28;20769;-80
2022/08/17 12:12:57;;;;;;;0.70;0.70;;;28.10;99.90;;;;;;5042068;28;20193;-80
2022/08/17 12:15:34;;;;;;;1.02;0.70;;;28.30;99.90;;;;;;5042851;28;20213;-80
2022/08/17 12:18:00;;;;;;;1.08;0.80;;;28.70;99.90;;;;;;5028561;28;20182;-80
2022/08/17 12:20:27;;;;;;;2.83;1.00;;;29.00;99.90;;;;;;5028684;28;20190;-79
2022/08/17 12:23:17;;;;;;;1.25;1.15;;;29.40;99.90;;;;;;5023162;28;20684;-80
2022/08/17 12:25:50;;;;;;;0.75;0.75;;;29.00;99.90;;;;;;5027067;28;20226;-80
2022/08/17 12:28:25;;;;;;;1.55;0.85;;;28.70;99.90;;;;;;5038654;28;20221;-80
2022/08/17 12:30:51;;;;;;;0.63;0.63;;;28.70;99.90;;;;;;5028628;28;20719;-80
2022/08/17 12:33:22;;;;;;;1.05;0.85;;;28.70;99.90;;;;;;5035676;28;20185;-80
2022/08/17 12:35:47;;;;;;;0.80;0.80;;;28.80;99.90;;;;;;5034112;28;20233;-80
2022/08/17 12:38:14;;;;;;;0.90;0.90;;;29.00;99.90;;;;;;5031184;28;20190;-80
2022/08/17 12:40:53;;;;;;;0.98;0.80;;;29.10;99.90;;;;;;5030696;28;20182;-80
2022/08/17 12:43:25;;;;;;;0.65;0.63;;;29.30;99.90;;;;;;5029619;28;20182;-80
2022/08/17 12:45:58;;;;;;;0.80;0.80;;;29.50;99.90;;;;;;5030952;28;20206;-80
2022/08/17 12:48:27;;;;;;;1.27;1.05;;;29.70;99.90;;;;;;5034141;28;20192;-80
2022/08/17 12:51:12;;;;;;;1.05;0.90;;;29.80;99.90;;;;;;5023850;28;20555;-80
2022/08/17 12:53:39;;;;;;;1.10;0.90;;;29.90;99.90;;;;;;5027077;28;20182;-80
2022/08/17 12:56:10;;;;;;;0.70;0.70;;;30.00;99.90;;;;;;5030114;28;20214;-80
2022/08/17 12:58:48;;;;;;;1.75;1.35;;;29.70;99.90;;;;;;5035936;28;20191;-80
2022/08/17 13:01:16;;;;;;;1.00;0.82;;;29.80;99.90;;;;;;5034356;28;20166;-80
2022/08/17 13:03:48;;;;;;;1.90;1.23;;;29.90;99.90;;;;;;5022751;28;20187;-80
2022/08/17 13:06:34;;;;;;;0.88;0.88;;;29.90;99.90;;;;;;5030219;28;20284;-81
2022/08/17 13:09:12;;;;;;;1.27;1.17;;;29.90;99.90;;;;;;5034825;28;20770;-80
2022/08/17 13:11:51;;;;;;;1.30;1.20;;;30.20;99.90;;;;;;5027966;28;20189;-81
2022/08/17 13:14:17;;;;;;;2.25;1.15;;;30.30;99.90;;;;;;5033430;28;20185;-80
2022/08/17 13:16:49;;;;;;;1.42;0.98;;;30.50;99.90;;;;;;5027853;28;20225;-81
2022/08/17 13:19:20;;;;;;;0.73;0.73;;;30.60;99.90;;;;;;5029796;28;20182;-81
2022/08/17 13:21:55;;;;;;;1.27;1.10;;;30.70;99.90;;;;;;5029655;28;20604;-80
2022/08/17 13:24:30;;;;;;;0.85;0.85;;;30.80;99.90;;;;;;5031045;28;20254;-81
2022/08/17 13:27:01;;;;;;;0.90;0.90;;;30.70;99.90;;;;;;5034859;28;20259;-81
2022/08/17 13:29:39;;;;;;;2.10;1.35;;;30.50;99.90;;;;;;5037790;28;20280;-81
2022/08/17 13:32:05;;;;;;;1.58;1.10;;;30.10;99.90;;;;;;5031046;28;20192;-81
2022/08/17 13:34:42;;;;;;;0.73;0.68;;;30.50;99.90;;;;;;5029739;28;20282;-80
2022/08/17 13:37:25;;;;;;;0.80;0.80;;;30.70;99.90;;;;;;5031573;28;20198;-80
2022/08/17 13:39:55;;;;;;;1.00;1.00;;;30.90;99.90;;;;;;5035272;28;20179;-81
2022/08/17 13:42:37;;;;;;;0.80;0.75;;;30.70;99.90;;;;;;5025767;28;20189;-80
2022/08/17 13:45:38;;;;;;;0.80;0.80;;;30.80;99.90;;;;;;5037473;28;20179;-80
2022/08/17 13:48:08;;;;;;;1.13;1.08;;;31.10;99.90;;;;;;5036220;28;20190;-81
2022/08/17 13:51:02;;;;;;;1.40;1.25;;;30.90;99.90;;;;;;5027794;28;20191;-81
2022/08/17 13:53:30;;;;;;;1.20;1.10;;;30.70;99.90;;;;;;5009652;28;20192;-80